Portada
METAR-TAF:

METAR-TAF

Aeroports :

Puerto Francisco de Orellana, Equador

latitud: 00-27-46S, longitud: 076-59-12W, altitud: 254 m

Observació

L'informe es va fer fa 31 minuts, a les 22:00 UTC
Vent 3 kt del Oest
Temperatura 25°C
Humitat 94%
Pressió 1010 hPa
Visibilitat: 8000 m
Escasses núvols a una alçada de 1000 ft
Cel ennuvolat a una alçada de 2000 ft
Cel cobert a una alçada de 10000 ft
pluja

METAR: SECO 272200Z 27003KT 8000 -RA FEW010 BKN020 OVC100 25/24 Q1010 RETS RMK A2982

Hora: 17:31 (22:31 UTC)


TAF: manca

Observacions i pronòstics meteorològics de més de 4000 aeroports (METAR i TAF).

Les estacions disponibles són els punts grocs i vermells al mapa.

Posi el ratolí al punt desitjat per veure el nom de l'estació.

Feu clic per veure les observacions i els pronòstics meteorològics.

Per canviar el mapa: feu clic els botons verds amb una creu de color negre per apropar; al botó verd amb un guió per allunyar la imatge; o en les fletxes verdes per a mapes adjacents.


METAR-TAF: